sensor_id;sensor_type;location;lat;lon;timestamp;P1;durP1;ratioP1;P2;durP2;ratioP2
26574;SDS011;67165;50.256;10.978;2024-03-02T00:00:15;82.55;;;41.10;;
26574;SDS011;67165;50.256;10.978;2024-03-02T00:02:41;81.45;;;39.58;;
26574;SDS011;67165;50.256;10.978;2024-03-02T00:05:08;82.43;;;41.35;;
26574;SDS011;67165;50.256;10.978;2024-03-02T00:07:37;84.32;;;41.17;;
26574;SDS011;67165;50.256;10.978;2024-03-02T00:10:07;86.90;;;41.30;;
26574;SDS011;67165;50.256;10.978;2024-03-02T00:12:38;85.30;;;42.60;;
26574;SDS011;67165;50.256;10.978;2024-03-02T00:15:05;86.93;;;42.90;;
26574;SDS011;67165;50.256;10.978;2024-03-02T00:17:53;85.90;;;42.00;;
26574;SDS011;67165;50.256;10.978;2024-03-02T00:20:20;90.85;;;41.78;;
26574;SDS011;67165;50.256;10.978;2024-03-02T00:22:47;85.13;;;42.00;;
26574;SDS011;67165;50.256;10.978;2024-03-02T00:25:14;93.28;;;40.63;;
26574;SDS011;67165;50.256;10.978;2024-03-02T00:27:40;85.07;;;42.20;;
26574;SDS011;67165;50.256;10.978;2024-03-02T00:30:36;87.88;;;41.10;;
26574;SDS011;67165;50.256;10.978;2024-03-02T00:33:09;82.10;;;40.08;;
26574;SDS011;67165;50.256;10.978;2024-03-02T00:35:36;91.72;;;41.63;;
26574;SDS011;67165;50.256;10.978;2024-03-02T00:38:05;72.68;;;37.65;;
26574;SDS011;67165;50.256;10.978;2024-03-02T00:40:31;83.70;;;40.92;;
26574;SDS011;67165;50.256;10.978;2024-03-02T00:42:57;87.90;;;41.45;;
26574;SDS011;67165;50.256;10.978;2024-03-02T00:45:23;76.75;;;37.55;;
26574;SDS011;67165;50.256;10.978;2024-03-02T00:47:50;75.88;;;39.00;;
26574;SDS011;67165;50.256;10.978;2024-03-02T00:50:17;78.32;;;38.40;;
26574;SDS011;67165;50.256;10.978;2024-03-02T00:52:42;80.07;;;38.83;;
26574;SDS011;67165;50.256;10.978;2024-03-02T00:55:09;90.20;;;41.28;;
26574;SDS011;67165;50.256;10.978;2024-03-02T00:57:34;82.63;;;40.30;;
26574;SDS011;67165;50.256;10.978;2024-03-02T01:00:00;75.53;;;38.08;;
26574;SDS011;67165;50.256;10.978;2024-03-02T01:02:27;78.82;;;39.92;;
26574;SDS011;67165;50.256;10.978;2024-03-02T01:04:54;76.65;;;38.13;;
26574;SDS011;67165;50.256;10.978;2024-03-02T01:07:20;73.43;;;39.35;;
26574;SDS011;67165;50.256;10.978;2024-03-02T01:09:45;75.15;;;37.88;;
26574;SDS011;67165;50.256;10.978;2024-03-02T01:12:11;77.88;;;37.97;;
26574;SDS011;67165;50.256;10.978;2024-03-02T01:14:37;82.20;;;39.53;;
26574;SDS011;67165;50.256;10.978;2024-03-02T01:17:02;78.10;;;38.58;;
26574;SDS011;67165;50.256;10.978;2024-03-02T01:19:29;84.95;;;40.47;;
26574;SDS011;67165;50.256;10.978;2024-03-02T01:21:55;83.10;;;39.20;;
26574;SDS011;67165;50.256;10.978;2024-03-02T01:24:21;81.72;;;40.45;;
26574;SDS011;67165;50.256;10.978;2024-03-02T01:26:47;85.78;;;40.25;;
26574;SDS011;67165;50.256;10.978;2024-03-02T01:29:13;76.80;;;38.72;;
26574;SDS011;67165;50.256;10.978;2024-03-02T01:31:38;80.75;;;39.15;;
26574;SDS011;67165;50.256;10.978;2024-03-02T01:34:07;80.97;;;39.25;;
26574;SDS011;67165;50.256;10.978;2024-03-02T01:36:33;80.78;;;38.70;;
26574;SDS011;67165;50.256;10.978;2024-03-02T01:38:59;75.18;;;38.53;;
26574;SDS011;67165;50.256;10.978;2024-03-02T01:41:25;83.38;;;39.63;;
26574;SDS011;67165;50.256;10.978;2024-03-02T01:43:51;82.28;;;40.80;;
26574;SDS011;67165;50.256;10.978;2024-03-02T01:46:17;82.28;;;39.13;;
26574;SDS011;67165;50.256;10.978;2024-03-02T01:48:43;83.18;;;40.42;;
26574;SDS011;67165;50.256;10.978;2024-03-02T01:51:09;77.70;;;39.60;;
26574;SDS011;67165;50.256;10.978;2024-03-02T01:53:35;83.30;;;40.00;;
26574;SDS011;67165;50.256;10.978;2024-03-02T01:56:02;80.82;;;39.28;;
26574;SDS011;67165;50.256;10.978;2024-03-02T01:58:28;81.85;;;38.67;;
26574;SDS011;67165;50.256;10.978;2024-03-02T02:00:53;83.10;;;39.85;;
26574;SDS011;67165;50.256;10.978;2024-03-02T02:03:19;84.57;;;41.30;;
26574;SDS011;67165;50.256;10.978;2024-03-02T02:05:45;82.75;;;40.35;;
26574;SDS011;67165;50.256;10.978;2024-03-02T02:08:13;78.40;;;39.33;;
26574;SDS011;67165;50.256;10.978;2024-03-02T02:10:38;81.28;;;40.78;;
26574;SDS011;67165;50.256;10.978;2024-03-02T02:13:04;82.68;;;40.17;;
26574;SDS011;67165;50.256;10.978;2024-03-02T02:15:30;79.75;;;39.50;;
26574;SDS011;67165;50.256;10.978;2024-03-02T02:17:57;86.53;;;41.75;;
26574;SDS011;67165;50.256;10.978;2024-03-02T02:20:23;83.15;;;40.55;;
26574;SDS011;67165;50.256;10.978;2024-03-02T02:23:03;84.65;;;40.22;;
26574;SDS011;67165;50.256;10.978;2024-03-02T02:25:30;79.05;;;39.55;;
26574;SDS011;67165;50.256;10.978;2024-03-02T02:27:56;77.97;;;38.50;;
26574;SDS011;67165;50.256;10.978;2024-03-02T02:30:26;78.78;;;38.92;;
26574;SDS011;67165;50.256;10.978;2024-03-02T02:32:56;83.07;;;40.03;;
26574;SDS011;67165;50.256;10.978;2024-03-02T02:35:22;77.50;;;38.25;;
26574;SDS011;67165;50.256;10.978;2024-03-02T02:37:49;85.35;;;40.13;;
26574;SDS011;67165;50.256;10.978;2024-03-02T02:40:15;75.72;;;38.30;;
26574;SDS011;67165;50.256;10.978;2024-03-02T02:42:41;81.13;;;40.30;;
26574;SDS011;67165;50.256;10.978;2024-03-02T02:45:07;77.53;;;39.13;;
26574;SDS011;67165;50.256;10.978;2024-03-02T02:47:34;77.75;;;37.65;;
26574;SDS011;67165;50.256;10.978;2024-03-02T02:50:03;78.72;;;39.40;;
26574;SDS011;67165;50.256;10.978;2024-03-02T02:52:35;79.60;;;37.85;;
26574;SDS011;67165;50.256;10.978;2024-03-02T02:57:29;79.18;;;37.78;;
26574;SDS011;67165;50.256;10.978;2024-03-02T03:00:00;76.55;;;39.05;;
26574;SDS011;67165;50.256;10.978;2024-03-02T03:02:29;77.38;;;37.47;;
26574;SDS011;67165;50.256;10.978;2024-03-02T03:04:55;77.60;;;38.13;;
26574;SDS011;67165;50.256;10.978;2024-03-02T03:07:22;79.75;;;37.78;;
26574;SDS011;67165;50.256;10.978;2024-03-02T03:09:48;77.10;;;39.15;;
26574;SDS011;67165;50.256;10.978;2024-03-02T03:12:14;79.70;;;39.63;;
26574;SDS011;67165;50.256;10.978;2024-03-02T03:14:42;83.05;;;40.10;;
26574;SDS011;67165;50.256;10.978;2024-03-02T03:17:08;81.70;;;39.08;;
26574;SDS011;67165;50.256;10.978;2024-03-02T03:19:34;73.15;;;37.13;;
26574;SDS011;67165;50.256;10.978;2024-03-02T03:22:00;77.30;;;38.50;;
26574;SDS011;67165;50.256;10.978;2024-03-02T03:24:26;78.07;;;38.65;;
26574;SDS011;67165;50.256;10.978;2024-03-02T03:26:52;77.18;;;38.25;;
26574;SDS011;67165;50.256;10.978;2024-03-02T03:29:18;86.43;;;41.92;;
26574;SDS011;67165;50.256;10.978;2024-03-02T03:31:43;81.20;;;39.67;;
26574;SDS011;67165;50.256;10.978;2024-03-02T03:34:09;78.80;;;39.30;;
26574;SDS011;67165;50.256;10.978;2024-03-02T03:36:37;82.60;;;39.38;;
26574;SDS011;67165;50.256;10.978;2024-03-02T03:39:03;77.95;;;39.13;;
26574;SDS011;67165;50.256;10.978;2024-03-02T03:41:30;79.72;;;37.45;;
26574;SDS011;67165;50.256;10.978;2024-03-02T03:43:55;81.50;;;39.65;;
26574;SDS011;67165;50.256;10.978;2024-03-02T03:46:21;83.97;;;40.88;;
26574;SDS011;67165;50.256;10.978;2024-03-02T03:48:47;81.88;;;40.13;;
26574;SDS011;67165;50.256;10.978;2024-03-02T03:51:12;83.65;;;40.72;;
26574;SDS011;67165;50.256;10.978;2024-03-02T03:53:38;85.43;;;39.63;;
26574;SDS011;67165;50.256;10.978;2024-03-02T03:56:04;87.25;;;40.13;;
26574;SDS011;67165;50.256;10.978;2024-03-02T03:58:30;81.57;;;40.65;;
26574;SDS011;67165;50.256;10.978;2024-03-02T04:00:55;82.00;;;40.05;;
26574;SDS011;67165;50.256;10.978;2024-03-02T04:03:21;80.65;;;38.30;;
26574;SDS011;67165;50.256;10.978;2024-03-02T04:05:47;84.68;;;40.13;;
26574;SDS011;67165;50.256;10.978;2024-03-02T04:08:13;79.10;;;38.70;;
26574;SDS011;67165;50.256;10.978;2024-03-02T04:10:38;83.93;;;41.20;;
26574;SDS011;67165;50.256;10.978;2024-03-02T04:13:05;84.60;;;40.65;;
26574;SDS011;67165;50.256;10.978;2024-03-02T04:15:31;92.93;;;41.50;;
26574;SDS011;67165;50.256;10.978;2024-03-02T04:17:56;79.15;;;39.05;;
26574;SDS011;67165;50.256;10.978;2024-03-02T04:20:22;84.25;;;41.13;;
26574;SDS011;67165;50.256;10.978;2024-03-02T04:22:48;82.35;;;39.33;;
26574;SDS011;67165;50.256;10.978;2024-03-02T04:25:13;86.97;;;41.00;;
26574;SDS011;67165;50.256;10.978;2024-03-02T04:27:39;89.93;;;41.50;;
26574;SDS011;67165;50.256;10.978;2024-03-02T04:30:06;84.78;;;40.75;;
26574;SDS011;67165;50.256;10.978;2024-03-02T04:32:32;84.97;;;40.45;;
26574;SDS011;67165;50.256;10.978;2024-03-02T04:34:58;90.88;;;42.00;;
26574;SDS011;67165;50.256;10.978;2024-03-02T04:37:23;89.72;;;43.53;;
26574;SDS011;67165;50.256;10.978;2024-03-02T04:39:49;92.38;;;41.65;;
26574;SDS011;67165;50.256;10.978;2024-03-02T04:42:15;91.18;;;42.97;;
26574;SDS011;67165;50.256;10.978;2024-03-02T04:44:41;88.97;;;42.20;;
26574;SDS011;67165;50.256;10.978;2024-03-02T04:47:06;86.53;;;41.55;;
26574;SDS011;67165;50.256;10.978;2024-03-02T04:49:32;91.90;;;41.33;;
26574;SDS011;67165;50.256;10.978;2024-03-02T04:51:58;90.35;;;41.65;;
26574;SDS011;67165;50.256;10.978;2024-03-02T04:54:23;89.38;;;42.58;;
26574;SDS011;67165;50.256;10.978;2024-03-02T04:56:49;90.05;;;42.05;;
26574;SDS011;67165;50.256;10.978;2024-03-02T04:59:16;87.22;;;40.58;;
26574;SDS011;67165;50.256;10.978;2024-03-02T05:01:43;81.97;;;39.22;;
26574;SDS011;67165;50.256;10.978;2024-03-02T05:04:09;85.85;;;39.35;;
26574;SDS011;67165;50.256;10.978;2024-03-02T05:06:38;86.85;;;42.47;;
26574;SDS011;67165;50.256;10.978;2024-03-02T05:09:07;80.80;;;41.08;;
26574;SDS011;67165;50.256;10.978;2024-03-02T05:11:33;85.07;;;39.78;;
26574;SDS011;67165;50.256;10.978;2024-03-02T05:14:20;92.45;;;41.05;;
26574;SDS011;67165;50.256;10.978;2024-03-02T05:16:45;88.35;;;41.67;;
26574;SDS011;67165;50.256;10.978;2024-03-02T05:19:11;88.93;;;42.00;;
26574;SDS011;67165;50.256;10.978;2024-03-02T05:21:37;88.18;;;40.97;;
26574;SDS011;67165;50.256;10.978;2024-03-02T05:24:03;90.75;;;41.38;;
26574;SDS011;67165;50.256;10.978;2024-03-02T05:26:29;87.10;;;41.28;;
26574;SDS011;67165;50.256;10.978;2024-03-02T05:28:54;86.63;;;43.13;;
26574;SDS011;67165;50.256;10.978;2024-03-02T05:31:20;84.72;;;43.13;;
26574;SDS011;67165;50.256;10.978;2024-03-02T05:33:46;91.65;;;44.85;;
26574;SDS011;67165;50.256;10.978;2024-03-02T05:36:12;84.57;;;40.95;;
26574;SDS011;67165;50.256;10.978;2024-03-02T05:38:37;91.40;;;41.83;;
26574;SDS011;67165;50.256;10.978;2024-03-02T05:41:03;92.15;;;42.10;;
26574;SDS011;67165;50.256;10.978;2024-03-02T05:43:29;87.32;;;40.83;;
26574;SDS011;67165;50.256;10.978;2024-03-02T05:45:55;90.50;;;42.60;;
26574;SDS011;67165;50.256;10.978;2024-03-02T05:48:21;92.07;;;42.83;;
26574;SDS011;67165;50.256;10.978;2024-03-02T05:50:46;86.30;;;40.97;;
26574;SDS011;67165;50.256;10.978;2024-03-02T05:53:12;86.85;;;41.67;;
26574;SDS011;67165;50.256;10.978;2024-03-02T05:55:38;100.25;;;42.13;;
26574;SDS011;67165;50.256;10.978;2024-03-02T05:58:04;89.47;;;42.88;;
26574;SDS011;67165;50.256;10.978;2024-03-02T06:00:48;95.88;;;43.78;;
26574;SDS011;67165;50.256;10.978;2024-03-02T06:03:14;90.13;;;42.35;;
26574;SDS011;67165;50.256;10.978;2024-03-02T06:05:40;86.90;;;42.47;;
26574;SDS011;67165;50.256;10.978;2024-03-02T06:08:06;89.85;;;42.10;;
26574;SDS011;67165;50.256;10.978;2024-03-02T06:10:32;88.65;;;40.78;;
26574;SDS011;67165;50.256;10.978;2024-03-02T06:12:58;101.25;;;43.75;;
26574;SDS011;67165;50.256;10.978;2024-03-02T06:15:24;90.65;;;41.53;;
26574;SDS011;67165;50.256;10.978;2024-03-02T06:17:50;86.97;;;41.28;;
26574;SDS011;67165;50.256;10.978;2024-03-02T06:20:15;91.95;;;41.70;;
26574;SDS011;67165;50.256;10.978;2024-03-02T06:22:41;93.90;;;41.30;;
26574;SDS011;67165;50.256;10.978;2024-03-02T06:25:07;92.63;;;40.83;;
26574;SDS011;67165;50.256;10.978;2024-03-02T06:27:33;92.43;;;41.15;;
26574;SDS011;67165;50.256;10.978;2024-03-02T06:29:58;93.10;;;42.75;;
26574;SDS011;67165;50.256;10.978;2024-03-02T06:32:24;89.30;;;41.05;;
26574;SDS011;67165;50.256;10.978;2024-03-02T06:34:50;89.63;;;41.88;;
26574;SDS011;67165;50.256;10.978;2024-03-02T06:37:16;93.80;;;42.38;;
26574;SDS011;67165;50.256;10.978;2024-03-02T06:39:41;89.70;;;40.10;;
26574;SDS011;67165;50.256;10.978;2024-03-02T06:42:08;91.00;;;42.47;;
26574;SDS011;67165;50.256;10.978;2024-03-02T06:44:34;87.97;;;41.15;;
26574;SDS011;67165;50.256;10.978;2024-03-02T06:46:59;89.85;;;39.83;;
26574;SDS011;67165;50.256;10.978;2024-03-02T06:49:25;89.03;;;40.70;;
26574;SDS011;67165;50.256;10.978;2024-03-02T06:51:51;86.38;;;40.00;;
26574;SDS011;67165;50.256;10.978;2024-03-02T06:54:16;85.18;;;40.20;;
26574;SDS011;67165;50.256;10.978;2024-03-02T06:56:42;79.80;;;38.53;;
26574;SDS011;67165;50.256;10.978;2024-03-02T06:59:08;74.57;;;36.10;;
26574;SDS011;67165;50.256;10.978;2024-03-02T07:01:33;84.05;;;39.10;;
26574;SDS011;67165;50.256;10.978;2024-03-02T07:03:59;81.32;;;38.42;;
26574;SDS011;67165;50.256;10.978;2024-03-02T07:06:25;72.30;;;36.22;;
26574;SDS011;67165;50.256;10.978;2024-03-02T07:08:51;80.50;;;38.40;;
26574;SDS011;67165;50.256;10.978;2024-03-02T07:11:17;74.82;;;36.95;;
26574;SDS011;67165;50.256;10.978;2024-03-02T07:13:42;78.25;;;37.80;;
26574;SDS011;67165;50.256;10.978;2024-03-02T07:16:08;69.03;;;33.45;;
26574;SDS011;67165;50.256;10.978;2024-03-02T07:18:53;70.68;;;35.03;;
26574;SDS011;67165;50.256;10.978;2024-03-02T07:21:21;76.60;;;36.75;;
26574;SDS011;67165;50.256;10.978;2024-03-02T07:23:47;73.20;;;35.47;;
26574;SDS011;67165;50.256;10.978;2024-03-02T07:26:13;69.78;;;35.88;;
26574;SDS011;67165;50.256;10.978;2024-03-02T07:28:40;69.18;;;35.15;;
26574;SDS011;67165;50.256;10.978;2024-03-02T07:31:06;67.18;;;35.05;;
26574;SDS011;67165;50.256;10.978;2024-03-02T07:33:32;73.65;;;36.03;;
26574;SDS011;67165;50.256;10.978;2024-03-02T07:35:59;65.60;;;34.40;;
26574;SDS011;67165;50.256;10.978;2024-03-02T07:38:26;62.50;;;32.90;;
26574;SDS011;67165;50.256;10.978;2024-03-02T07:40:52;74.70;;;35.13;;
26574;SDS011;67165;50.256;10.978;2024-03-02T07:43:18;69.78;;;33.33;;
26574;SDS011;67165;50.256;10.978;2024-03-02T07:45:45;64.38;;;33.40;;
26574;SDS011;67165;50.256;10.978;2024-03-02T07:48:14;67.97;;;33.35;;
26574;SDS011;67165;50.256;10.978;2024-03-02T07:50:40;58.22;;;31.05;;
26574;SDS011;67165;50.256;10.978;2024-03-02T07:53:06;58.15;;;30.45;;
26574;SDS011;67165;50.256;10.978;2024-03-02T07:55:33;56.75;;;30.63;;
26574;SDS011;67165;50.256;10.978;2024-03-02T07:57:59;53.10;;;29.88;;
26574;SDS011;67165;50.256;10.978;2024-03-02T08:00:26;55.45;;;30.15;;
26574;SDS011;67165;50.256;10.978;2024-03-02T08:02:52;58.03;;;30.27;;
26574;SDS011;67165;50.256;10.978;2024-03-02T08:05:19;54.10;;;29.08;;
26574;SDS011;67165;50.256;10.978;2024-03-02T08:07:45;50.38;;;28.42;;
26574;SDS011;67165;50.256;10.978;2024-03-02T08:10:12;55.45;;;29.27;;
26574;SDS011;67165;50.256;10.978;2024-03-02T08:12:38;49.60;;;25.80;;
26574;SDS011;67165;50.256;10.978;2024-03-02T08:15:04;50.53;;;27.52;;
26574;SDS011;67165;50.256;10.978;2024-03-02T08:17:30;49.03;;;28.55;;
26574;SDS011;67165;50.256;10.978;2024-03-02T08:19:56;54.08;;;27.85;;
26574;SDS011;67165;50.256;10.978;2024-03-02T08:22:23;46.80;;;26.85;;
26574;SDS011;67165;50.256;10.978;2024-03-02T08:24:50;49.55;;;26.27;;
26574;SDS011;67165;50.256;10.978;2024-03-02T08:27:16;49.80;;;26.95;;
26574;SDS011;67165;50.256;10.978;2024-03-02T08:29:42;51.33;;;27.23;;
26574;SDS011;67165;50.256;10.978;2024-03-02T08:32:08;48.85;;;26.85;;
26574;SDS011;67165;50.256;10.978;2024-03-02T08:34:33;45.25;;;25.13;;
26574;SDS011;67165;50.256;10.978;2024-03-02T08:37:01;47.13;;;26.52;;
26574;SDS011;67165;50.256;10.978;2024-03-02T08:39:27;40.08;;;23.40;;
26574;SDS011;67165;50.256;10.978;2024-03-02T08:41:53;40.75;;;23.08;;
26574;SDS011;67165;50.256;10.978;2024-03-02T08:44:19;47.53;;;26.00;;
26574;SDS011;67165;50.256;10.978;2024-03-02T08:46:45;46.55;;;25.67;;
26574;SDS011;67165;50.256;10.978;2024-03-02T08:49:12;50.15;;;27.02;;
26574;SDS011;67165;50.256;10.978;2024-03-02T08:51:38;45.83;;;26.75;;
26574;SDS011;67165;50.256;10.978;2024-03-02T08:54:04;43.47;;;24.70;;
26574;SDS011;67165;50.256;10.978;2024-03-02T08:56:30;52.25;;;26.30;;
26574;SDS011;67165;50.256;10.978;2024-03-02T08:58:56;43.60;;;24.65;;
26574;SDS011;67165;50.256;10.978;2024-03-02T09:01:22;41.65;;;23.83;;
26574;SDS011;67165;50.256;10.978;2024-03-02T09:03:48;41.47;;;23.90;;
26574;SDS011;67165;50.256;10.978;2024-03-02T09:06:14;42.17;;;24.95;;
26574;SDS011;67165;50.256;10.978;2024-03-02T09:08:44;40.80;;;22.70;;
26574;SDS011;67165;50.256;10.978;2024-03-02T09:11:10;35.80;;;21.35;;
26574;SDS011;67165;50.256;10.978;2024-03-02T09:13:37;42.92;;;23.08;;
26574;SDS011;67165;50.256;10.978;2024-03-02T09:16:03;38.10;;;22.10;;
26574;SDS011;67165;50.256;10.978;2024-03-02T09:18:30;40.90;;;20.92;;
26574;SDS011;67165;50.256;10.978;2024-03-02T09:20:56;37.00;;;21.30;;
26574;SDS011;67165;50.256;10.978;2024-03-02T09:23:22;40.20;;;22.48;;
26574;SDS011;67165;50.256;10.978;2024-03-02T09:25:47;37.22;;;21.25;;
26574;SDS011;67165;50.256;10.978;2024-03-02T09:28:15;34.55;;;19.98;;
26574;SDS011;67165;50.256;10.978;2024-03-02T09:30:41;32.50;;;19.77;;
26574;SDS011;67165;50.256;10.978;2024-03-02T09:33:06;34.22;;;20.73;;
26574;SDS011;67165;50.256;10.978;2024-03-02T09:35:32;33.63;;;20.23;;
26574;SDS011;67165;50.256;10.978;2024-03-02T09:37:58;30.48;;;18.98;;
26574;SDS011;67165;50.256;10.978;2024-03-02T09:40:24;31.98;;;18.52;;
26574;SDS011;67165;50.256;10.978;2024-03-02T09:42:50;28.17;;;17.55;;
26574;SDS011;67165;50.256;10.978;2024-03-02T09:45:23;30.23;;;17.67;;
26574;SDS011;67165;50.256;10.978;2024-03-02T09:47:50;29.42;;;17.65;;
26574;SDS011;67165;50.256;10.978;2024-03-02T09:50:16;29.55;;;17.48;;
26574;SDS011;67165;50.256;10.978;2024-03-02T09:52:42;26.45;;;16.52;;
26574;SDS011;67165;50.256;10.978;2024-03-02T09:55:08;30.77;;;18.30;;
26574;SDS011;67165;50.256;10.978;2024-03-02T09:57:34;30.58;;;17.55;;
26574;SDS011;67165;50.256;10.978;2024-03-02T10:00:00;29.35;;;17.13;;
26574;SDS011;67165;50.256;10.978;2024-03-02T10:02:27;24.95;;;16.40;;
26574;SDS011;67165;50.256;10.978;2024-03-02T10:04:52;28.02;;;16.98;;
26574;SDS011;67165;50.256;10.978;2024-03-02T10:07:18;26.13;;;16.42;;
26574;SDS011;67165;50.256;10.978;2024-03-02T10:09:45;27.73;;;16.88;;
26574;SDS011;67165;50.256;10.978;2024-03-02T10:12:13;29.90;;;16.60;;
26574;SDS011;67165;50.256;10.978;2024-03-02T10:14:40;25.73;;;15.90;;
26574;SDS011;67165;50.256;10.978;2024-03-02T10:17:08;26.42;;;16.40;;
26574;SDS011;67165;50.256;10.978;2024-03-02T10:19:35;24.40;;;14.77;;
26574;SDS011;67165;50.256;10.978;2024-03-02T10:22:02;21.88;;;14.23;;
26574;SDS011;67165;50.256;10.978;2024-03-02T10:27:27;25.98;;;14.32;;
26574;SDS011;67165;50.256;10.978;2024-03-02T10:29:54;22.00;;;14.32;;
26574;SDS011;67165;50.256;10.978;2024-03-02T10:32:19;20.73;;;13.85;;
26574;SDS011;67165;50.256;10.978;2024-03-02T10:34:48;22.63;;;14.38;;
26574;SDS011;67165;50.256;10.978;2024-03-02T10:37:15;24.33;;;14.77;;
26574;SDS011;67165;50.256;10.978;2024-03-02T10:39:42;27.95;;;16.58;;
26574;SDS011;67165;50.256;10.978;2024-03-02T10:42:08;29.80;;;15.90;;
26574;SDS011;67165;50.256;10.978;2024-03-02T10:44:34;25.27;;;15.75;;
26574;SDS011;67165;50.256;10.978;2024-03-02T10:47:00;24.23;;;15.32;;
26574;SDS011;67165;50.256;10.978;2024-03-02T10:49:29;27.05;;;15.73;;
26574;SDS011;67165;50.256;10.978;2024-03-02T10:51:56;23.67;;;15.27;;
26574;SDS011;67165;50.256;10.978;2024-03-02T10:54:25;23.98;;;15.60;;
26574;SDS011;67165;50.256;10.978;2024-03-02T10:56:52;24.73;;;15.43;;
26574;SDS011;67165;50.256;10.978;2024-03-02T11:01:53;23.00;;;15.10;;
26574;SDS011;67165;50.256;10.978;2024-03-02T11:04:24;25.10;;;16.33;;
26574;SDS011;67165;50.256;10.978;2024-03-02T11:06:51;27.83;;;15.93;;
26574;SDS011;67165;50.256;10.978;2024-03-02T11:09:20;25.83;;;15.50;;
26574;SDS011;67165;50.256;10.978;2024-03-02T11:11:56;25.38;;;15.50;;
26574;SDS011;67165;50.256;10.978;2024-03-02T11:14:37;24.42;;;14.80;;
26574;SDS011;67165;50.256;10.978;2024-03-02T11:17:11;21.88;;;14.07;;
26574;SDS011;67165;50.256;10.978;2024-03-02T11:19:40;21.98;;;14.90;;
26574;SDS011;67165;50.256;10.978;2024-03-02T11:22:08;22.48;;;14.68;;
26574;SDS011;67165;50.256;10.978;2024-03-02T11:24:34;23.05;;;14.35;;
26574;SDS011;67165;50.256;10.978;2024-03-02T11:27:04;21.23;;;14.38;;
26574;SDS011;67165;50.256;10.978;2024-03-02T11:32:13;23.67;;;14.65;;
26574;SDS011;67165;50.256;10.978;2024-03-02T11:34:45;21.58;;;14.05;;
26574;SDS011;67165;50.256;10.978;2024-03-02T11:37:12;21.77;;;13.95;;
26574;SDS011;67165;50.256;10.978;2024-03-02T11:39:42;23.25;;;14.38;;
26574;SDS011;67165;50.256;10.978;2024-03-02T11:42:10;23.88;;;14.55;;
26574;SDS011;67165;50.256;10.978;2024-03-02T11:44:39;21.83;;;14.15;;
26574;SDS011;67165;50.256;10.978;2024-03-02T11:47:07;21.65;;;13.82;;
26574;SDS011;67165;50.256;10.978;2024-03-02T11:52:06;20.70;;;14.00;;
26574;SDS011;67165;50.256;10.978;2024-03-02T11:54:34;22.58;;;13.60;;
26574;SDS011;67165;50.256;10.978;2024-03-02T11:57:11;21.75;;;14.05;;
26574;SDS011;67165;50.256;10.978;2024-03-02T11:59:39;21.27;;;13.63;;
26574;SDS011;67165;50.256;10.978;2024-03-02T12:02:05;19.52;;;13.30;;
26574;SDS011;67165;50.256;10.978;2024-03-02T12:04:31;21.60;;;14.13;;
26574;SDS011;67165;50.256;10.978;2024-03-02T12:06:58;22.80;;;13.90;;
26574;SDS011;67165;50.256;10.978;2024-03-02T12:09:28;21.67;;;14.50;;
26574;SDS011;67165;50.256;10.978;2024-03-02T12:12:04;20.92;;;12.75;;
26574;SDS011;67165;50.256;10.978;2024-03-02T12:14:38;20.15;;;13.00;;
26574;SDS011;67165;50.256;10.978;2024-03-02T12:17:04;21.52;;;12.85;;
26574;SDS011;67165;50.256;10.978;2024-03-02T12:19:31;20.50;;;13.15;;
26574;SDS011;67165;50.256;10.978;2024-03-02T12:21:58;18.55;;;12.95;;
26574;SDS011;67165;50.256;10.978;2024-03-02T12:24:30;18.48;;;12.30;;
26574;SDS011;67165;50.256;10.978;2024-03-02T12:26:56;18.83;;;13.18;;
26574;SDS011;67165;50.256;10.978;2024-03-02T12:29:22;18.13;;;12.18;;
26574;SDS011;67165;50.256;10.978;2024-03-02T12:31:49;18.05;;;11.70;;
26574;SDS011;67165;50.256;10.978;2024-03-02T12:34:17;18.63;;;12.23;;
26574;SDS011;67165;50.256;10.978;2024-03-02T12:36:44;20.23;;;12.10;;
26574;SDS011;67165;50.256;10.978;2024-03-02T12:39:17;17.42;;;11.80;;
26574;SDS011;67165;50.256;10.978;2024-03-02T12:41:44;21.63;;;12.13;;
26574;SDS011;67165;50.256;10.978;2024-03-02T12:44:15;17.90;;;11.90;;
26574;SDS011;67165;50.256;10.978;2024-03-02T12:46:41;23.17;;;14.75;;
26574;SDS011;67165;50.256;10.978;2024-03-02T12:49:08;18.27;;;13.05;;
26574;SDS011;67165;50.256;10.978;2024-03-02T12:51:36;17.00;;;11.07;;
26574;SDS011;67165;50.256;10.978;2024-03-02T12:54:02;15.70;;;11.13;;
26574;SDS011;67165;50.256;10.978;2024-03-02T12:56:28;16.83;;;11.32;;
26574;SDS011;67165;50.256;10.978;2024-03-02T12:58:55;21.38;;;11.18;;
26574;SDS011;67165;50.256;10.978;2024-03-02T13:01:21;15.95;;;10.80;;
26574;SDS011;67165;50.256;10.978;2024-03-02T13:03:49;13.40;;;9.45;;
26574;SDS011;67165;50.256;10.978;2024-03-02T13:06:22;15.35;;;10.75;;
26574;SDS011;67165;50.256;10.978;2024-03-02T13:08:49;16.30;;;10.52;;
26574;SDS011;67165;50.256;10.978;2024-03-02T13:11:15;15.45;;;9.75;;
26574;SDS011;67165;50.256;10.978;2024-03-02T13:13:41;14.02;;;9.80;;
26574;SDS011;67165;50.256;10.978;2024-03-02T13:16:11;14.30;;;10.38;;
26574;SDS011;67165;50.256;10.978;2024-03-02T13:18:40;14.98;;;10.45;;
26574;SDS011;67165;50.256;10.978;2024-03-02T13:21:09;14.15;;;10.10;;
26574;SDS011;67165;50.256;10.978;2024-03-02T13:23:35;13.10;;;9.55;;
26574;SDS011;67165;50.256;10.978;2024-03-02T13:26:01;13.80;;;9.05;;
26574;SDS011;67165;50.256;10.978;2024-03-02T13:28:27;13.85;;;9.77;;
26574;SDS011;67165;50.256;10.978;2024-03-02T13:30:53;11.85;;;9.68;;
26574;SDS011;67165;50.256;10.978;2024-03-02T13:33:19;15.38;;;9.75;;
26574;SDS011;67165;50.256;10.978;2024-03-02T13:35:50;16.15;;;10.23;;
26574;SDS011;67165;50.256;10.978;2024-03-02T13:38:17;12.30;;;9.07;;
26574;SDS011;67165;50.256;10.978;2024-03-02T13:40:43;13.45;;;9.25;;
26574;SDS011;67165;50.256;10.978;2024-03-02T13:43:09;12.00;;;9.00;;
26574;SDS011;67165;50.256;10.978;2024-03-02T13:45:36;13.63;;;9.50;;
26574;SDS011;67165;50.256;10.978;2024-03-02T13:48:03;12.10;;;9.35;;
26574;SDS011;67165;50.256;10.978;2024-03-02T13:50:30;12.95;;;9.30;;
26574;SDS011;67165;50.256;10.978;2024-03-02T13:52:56;12.68;;;9.18;;
26574;SDS011;67165;50.256;10.978;2024-03-02T13:55:22;11.93;;;8.40;;
26574;SDS011;67165;50.256;10.978;2024-03-02T13:57:47;12.27;;;9.38;;
26574;SDS011;67165;50.256;10.978;2024-03-02T14:00:17;13.07;;;9.10;;
26574;SDS011;67165;50.256;10.978;2024-03-02T14:02:45;12.85;;;9.70;;
26574;SDS011;67165;50.256;10.978;2024-03-02T14:05:11;15.60;;;9.13;;
26574;SDS011;67165;50.256;10.978;2024-03-02T14:07:40;11.73;;;8.55;;
26574;SDS011;67165;50.256;10.978;2024-03-02T14:10:06;12.60;;;8.27;;
26574;SDS011;67165;50.256;10.978;2024-03-02T14:12:32;10.95;;;8.48;;
26574;SDS011;67165;50.256;10.978;2024-03-02T14:14:58;10.75;;;7.88;;
26574;SDS011;67165;50.256;10.978;2024-03-02T14:17:27;9.63;;;7.57;;
26574;SDS011;67165;50.256;10.978;2024-03-02T14:19:53;10.60;;;8.35;;
26574;SDS011;67165;50.256;10.978;2024-03-02T14:22:19;10.27;;;8.10;;